createdAt,value
2018-11-27T00:00:18.881Z,23.27
2018-11-27T00:02:47.441Z,23.30
2018-11-27T00:05:16.018Z,26.50
2018-11-27T00:07:44.544Z,23.40
2018-11-27T00:10:13.012Z,25.30
2018-11-27T00:12:41.441Z,23.30
2018-11-27T00:15:11.165Z,23.73
2018-11-27T00:17:39.962Z,23.17
2018-11-27T00:20:11.558Z,24.27
2018-11-27T00:22:40.100Z,24.00
2018-11-27T00:25:11.577Z,26.70
2018-11-27T00:27:40.144Z,23.37
2018-11-27T00:30:10.811Z,23.30
2018-11-27T00:32:41.024Z,25.10
2018-11-27T00:35:10.590Z,24.67
2018-11-27T00:37:39.087Z,25.43
2018-11-27T00:40:13.503Z,21.90
2018-11-27T00:42:42.220Z,22.80
2018-11-27T00:45:12.114Z,25.73
2018-11-27T00:47:41.114Z,19.80
2018-11-27T00:50:13.803Z,23.80
2018-11-27T00:52:42.363Z,21.83
2018-11-27T00:55:11.977Z,22.17
2018-11-27T00:57:41.406Z,22.77
2018-11-27T01:00:13.551Z,21.70
2018-11-27T01:02:41.898Z,23.43
2018-11-27T01:05:12.802Z,22.83
2018-11-27T01:07:41.447Z,19.00
2018-11-27T01:10:13.100Z,21.87
2018-11-27T01:12:41.717Z,21.87
2018-11-27T01:15:11.579Z,21.87
2018-11-27T01:17:42.881Z,22.17
2018-11-27T01:20:13.672Z,21.63
2018-11-27T01:22:42.100Z,23.73
2018-11-27T01:25:11.169Z,25.10
2018-11-27T01:27:39.641Z,23.13
2018-11-27T01:30:13.743Z,21.80
2018-11-27T01:32:42.521Z,23.07
2018-11-27T01:35:13.828Z,22.07
2018-11-27T01:37:42.409Z,23.40
2018-11-27T01:40:16.346Z,21.60
2018-11-27T01:42:46.553Z,22.70
2018-11-27T01:45:16.459Z,20.67
2018-11-27T01:47:45.087Z,23.83
2018-11-27T01:50:14.630Z,24.93
2018-11-27T01:52:43.118Z,20.83
2018-11-27T01:55:12.930Z,23.73
2018-11-27T01:57:42.343Z,23.07
2018-11-27T02:00:15.897Z,24.93
2018-11-27T02:02:44.431Z,24.13
2018-11-27T02:05:12.787Z,21.87
2018-11-27T02:07:41.293Z,22.13
2018-11-27T02:10:11.060Z,24.00
2018-11-27T02:12:40.191Z,23.00
2018-11-27T02:15:12.944Z,23.97
2018-11-27T02:17:41.356Z,28.10
2018-11-27T02:20:11.053Z,22.57
2018-11-27T02:22:39.603Z,22.40
2018-11-27T02:25:11.057Z,25.90
2018-11-27T02:27:39.701Z,25.93
2018-11-27T02:30:10.621Z,25.67
2018-11-27T02:32:39.185Z,24.70
2018-11-27T02:35:09.484Z,22.57
2018-11-27T02:37:38.006Z,25.07
2018-11-27T02:40:08.720Z,25.97
2018-11-27T02:42:37.403Z,24.80
2018-11-27T02:45:08.117Z,24.37
2018-11-27T02:47:36.592Z,24.97
2018-11-27T02:50:05.903Z,24.90
2018-11-27T02:52:34.371Z,24.03
2018-11-27T02:55:02.746Z,24.30
2018-11-27T02:57:31.124Z,23.70
2018-11-27T03:00:00.187Z,22.07
2018-11-27T03:02:28.605Z,27.37
2018-11-27T03:04:57.103Z,26.40
2018-11-27T03:07:25.530Z,26.13
2018-11-27T03:09:53.954Z,26.60
2018-11-27T03:12:22.541Z,26.10
2018-11-27T03:14:51.091Z,27.17
2018-11-27T03:17:19.521Z,27.03
2018-11-27T03:19:48.018Z,27.17
2018-11-27T03:22:16.464Z,25.57
2018-11-27T03:24:44.957Z,26.03
2018-11-27T03:27:13.345Z,28.60
2018-11-27T03:29:41.816Z,28.17
2018-11-27T03:32:10.493Z,28.30
2018-11-27T03:34:38.896Z,30.03
2018-11-27T03:37:07.273Z,29.30
2018-11-27T03:39:35.920Z,28.87
2018-11-27T03:42:04.385Z,28.37
2018-11-27T03:44:32.776Z,27.53
2018-11-27T03:47:01.182Z,27.50
2018-11-27T03:49:29.558Z,28.50
2018-11-27T03:51:57.982Z,28.83
2018-11-27T03:54:26.356Z,23.80
2018-11-27T03:56:54.758Z,26.37
2018-11-27T03:59:23.173Z,24.87
2018-11-27T04:01:51.697Z,23.60
2018-11-27T04:04:20.102Z,24.87
2018-11-27T04:06:48.605Z,26.50
2018-11-27T04:09:16.869Z,25.20
2018-11-27T04:11:45.378Z,22.77
2018-11-27T04:14:13.755Z,21.67
2018-11-27T04:16:42.141Z,22.03
2018-11-27T04:19:10.640Z,21.83
2018-11-27T04:21:39.097Z,20.90
2018-11-27T04:24:07.467Z,23.40
2018-11-27T04:26:35.848Z,24.57
2018-11-27T04:29:04.927Z,24.37
2018-11-27T04:31:33.630Z,22.53
2018-11-27T04:34:02.154Z,21.97
2018-11-27T04:36:30.583Z,20.77
2018-11-27T04:38:58.965Z,22.93
2018-11-27T04:41:27.478Z,21.10
2018-11-27T04:43:55.961Z,21.10
2018-11-27T04:46:24.280Z,21.43
2018-11-27T04:48:52.790Z,19.30
2018-11-27T04:51:21.264Z,21.00
2018-11-27T04:53:49.631Z,19.40
2018-11-27T04:56:18.073Z,21.00
2018-11-27T04:58:46.430Z,20.93
2018-11-27T05:01:14.754Z,20.63
2018-11-27T05:03:43.172Z,20.73
2018-11-27T05:06:11.643Z,19.30
2018-11-27T05:08:40.034Z,19.80
2018-11-27T05:11:08.399Z,20.30
2018-11-27T05:13:36.756Z,21.73
2018-11-27T05:16:05.797Z,20.90
2018-11-27T05:18:34.157Z,20.57
2018-11-27T05:21:02.777Z,19.23
2018-11-27T05:23:31.234Z,19.80
2018-11-27T05:25:59.649Z,20.50
2018-11-27T05:28:28.130Z,20.73
2018-11-27T05:30:56.788Z,19.53
2018-11-27T05:33:25.161Z,20.17
2018-11-27T05:35:53.467Z,19.93
2018-11-27T05:38:21.790Z,21.90
2018-11-27T05:40:50.235Z,23.03
2018-11-27T05:43:18.572Z,21.13
2018-11-27T05:45:47.246Z,21.53
2018-11-27T05:48:15.682Z,23.60
2018-11-27T05:50:44.453Z,20.33
2018-11-27T05:53:12.971Z,22.63
2018-11-27T05:55:41.388Z,22.60
2018-11-27T05:58:09.806Z,21.27
2018-11-27T06:00:38.174Z,21.30
2018-11-27T06:03:09.168Z,23.33
2018-11-27T06:05:37.693Z,23.03
2018-11-27T06:08:06.534Z,23.37
2018-11-27T06:10:35.019Z,22.27
2018-11-27T06:13:03.494Z,21.37
2018-11-27T06:15:32.713Z,21.33
2018-11-27T06:18:02.120Z,22.30
2018-11-27T06:20:30.463Z,22.70
2018-11-27T06:22:58.927Z,20.47
2018-11-27T06:25:28.411Z,21.67
2018-11-27T06:28:00.143Z,20.60
2018-11-27T06:30:30.245Z,20.90
2018-11-27T06:32:59.844Z,22.43
2018-11-27T06:35:29.753Z,21.10
2018-11-27T06:37:58.204Z,21.53
2018-11-27T06:40:28.069Z,22.27
2018-11-27T06:42:56.489Z,22.60
2018-11-27T06:45:24.950Z,25.10
2018-11-27T06:47:53.652Z,23.30
2018-11-27T06:50:23.052Z,22.10
2018-11-27T06:52:51.399Z,21.00
2018-11-27T06:55:21.004Z,21.00
2018-11-27T06:57:49.797Z,21.50
2018-11-27T07:00:21.140Z,21.07
2018-11-27T07:02:49.585Z,22.80
2018-11-27T07:05:17.953Z,22.13
2018-11-27T07:07:46.378Z,20.73
2018-11-27T07:10:20.881Z,21.57
2018-11-27T07:12:50.554Z,22.53
2018-11-27T07:15:20.666Z,22.67
2018-11-27T07:17:49.107Z,20.63
2018-11-27T07:20:17.513Z,22.53
2018-11-27T07:22:45.978Z,22.67
2018-11-27T07:25:15.523Z,21.13
2018-11-27T07:27:48.162Z,21.50
2018-11-27T07:30:18.480Z,21.57
2018-11-27T07:32:46.977Z,20.83
2018-11-27T07:35:16.203Z,20.77
2018-11-27T07:37:44.931Z,18.07
2018-11-27T07:40:14.803Z,18.93
2018-11-27T07:42:43.442Z,21.97
2018-11-27T07:45:14.600Z,19.47
2018-11-27T07:47:43.165Z,19.50
2018-11-27T07:50:12.230Z,19.60
2018-11-27T07:52:41.271Z,20.43
2018-11-27T07:55:14.510Z,21.97
2018-11-27T07:57:43.342Z,20.00
2018-11-27T08:00:16.130Z,22.40
2018-11-27T08:02:45.733Z,19.90
2018-11-27T08:05:18.984Z,20.73
2018-11-27T08:07:49.968Z,20.30
2018-11-27T08:10:20.128Z,21.90
2018-11-27T08:12:48.543Z,20.97
2018-11-27T08:15:18.388Z,20.70
2018-11-27T08:17:46.809Z,21.23
2018-11-27T08:20:23.575Z,19.90
2018-11-27T08:22:52.009Z,19.70
2018-11-27T08:25:20.497Z,18.30
2018-11-27T08:27:48.913Z,18.80
2018-11-27T08:30:20.375Z,19.90
2018-11-27T08:32:49.365Z,20.00
2018-11-27T08:35:22.963Z,18.70
2018-11-27T08:37:52.576Z,18.73
2018-11-27T08:40:22.445Z,18.90
2018-11-27T08:42:50.997Z,18.73
2018-11-27T08:45:21.543Z,19.73
2018-11-27T08:47:51.005Z,17.23
2018-11-27T08:50:21.863Z,17.03
2018-11-27T08:52:58.687Z,20.83
2018-11-27T08:55:28.805Z,17.73
2018-11-27T08:57:57.234Z,21.63
2018-11-27T09:00:26.430Z,20.30
2018-11-27T09:02:55.024Z,20.40
2018-11-27T09:05:23.434Z,20.03
2018-11-27T09:07:51.823Z,19.20
2018-11-27T09:10:21.886Z,19.27
2018-11-27T09:12:50.539Z,18.27
2018-11-27T09:15:20.341Z,18.70
2018-11-27T09:17:54.929Z,17.37
2018-11-27T09:20:23.358Z,17.57
2018-11-27T09:22:52.095Z,19.20
2018-11-27T09:25:20.600Z,19.10
2018-11-27T09:27:49.709Z,17.53
2018-11-27T09:30:23.480Z,21.17
2018-11-27T09:32:52.577Z,21.23
2018-11-27T09:35:21.145Z,19.77
2018-11-27T09:37:49.472Z,19.13
2018-11-27T09:40:19.291Z,20.10
2018-11-27T09:42:48.010Z,18.30
2018-11-27T09:45:21.514Z,18.27
2018-11-27T09:47:51.113Z,20.13
2018-11-27T09:50:19.792Z,16.63
2018-11-27T09:52:48.576Z,18.50
2018-11-27T09:55:18.863Z,19.10
2018-11-27T09:57:47.299Z,18.37
2018-11-27T10:00:22.055Z,18.83
2018-11-27T10:02:51.557Z,16.47
2018-11-27T10:05:20.213Z,16.77
2018-11-27T10:07:48.730Z,17.33
2018-11-27T10:10:18.956Z,16.63
2018-11-27T10:12:47.416Z,17.87
2018-11-27T10:15:18.055Z,16.17
2018-11-27T10:17:48.948Z,15.87
2018-11-27T10:20:18.809Z,16.77
2018-11-27T10:22:47.560Z,19.70
2018-11-27T10:25:16.060Z,17.33
2018-11-27T10:27:45.012Z,17.10
2018-11-27T10:30:20.175Z,17.13
2018-11-27T10:32:51.041Z,17.00
2018-11-27T10:35:24.791Z,15.90
2018-11-27T10:37:53.256Z,16.40
2018-11-27T10:40:21.695Z,15.70
2018-11-27T10:42:50.239Z,16.60
2018-11-27T10:45:20.297Z,17.23
2018-11-27T10:47:49.879Z,16.93
2018-11-27T10:50:18.922Z,17.60
2018-11-27T10:52:48.547Z,17.90
2018-11-27T10:55:17.982Z,18.20
2018-11-27T10:57:46.427Z,17.10
2018-11-27T11:00:23.985Z,15.67
2018-11-27T11:02:56.575Z,15.90
2018-11-27T11:05:27.755Z,16.37
2018-11-27T11:07:55.109Z,14.50
2018-11-27T11:10:23.543Z,16.63
2018-11-27T11:12:52.082Z,17.00
2018-11-27T11:15:20.493Z,15.40
2018-11-27T11:17:49.076Z,16.27
2018-11-27T11:20:18.027Z,18.97
2018-11-27T11:22:46.605Z,16.40
2018-11-27T11:25:19.486Z,16.37
2018-11-27T11:27:56.223Z,14.93
2018-11-27T11:30:25.007Z,16.70
2018-11-27T11:32:53.476Z,15.67
2018-11-27T11:35:21.868Z,17.23
2018-11-27T11:37:50.872Z,15.00
2018-11-27T11:40:21.603Z,15.20
2018-11-27T11:42:51.473Z,13.50
2018-11-27T11:45:19.936Z,16.90
2018-11-27T11:47:48.622Z,17.83
2018-11-27T11:50:20.431Z,20.63
2018-11-27T11:52:50.402Z,16.70
2018-11-27T11:55:19.977Z,15.70
2018-11-27T11:57:48.422Z,15.10
2018-11-27T12:00:20.955Z,17.70
2018-11-27T12:02:49.341Z,21.83
2018-11-27T12:05:17.760Z,18.70
2018-11-27T12:07:46.210Z,17.53
2018-11-27T12:10:15.593Z,17.07
2018-11-27T12:12:45.267Z,16.57
2018-11-27T12:15:15.750Z,16.93
2018-11-27T12:17:44.785Z,15.83
2018-11-27T12:20:14.467Z,15.30
2018-11-27T12:22:45.126Z,13.80
2018-11-27T12:25:14.125Z,14.47
2018-11-27T12:27:42.417Z,15.40
2018-11-27T12:30:14.957Z,15.30
2018-11-27T12:32:44.589Z,13.50
2018-11-27T12:35:13.616Z,12.77
2018-11-27T12:37:42.372Z,14.63
2018-11-27T12:40:14.643Z,14.27
2018-11-27T12:42:43.074Z,14.33
2018-11-27T12:45:14.392Z,15.13
2018-11-27T12:47:42.963Z,15.87
2018-11-27T12:50:17.583Z,14.43
2018-11-27T12:52:46.111Z,12.20
2018-11-27T12:55:17.342Z,12.33
2018-11-27T12:57:46.402Z,11.17
2018-11-27T13:00:16.099Z,12.50
2018-11-27T13:02:44.550Z,11.33
2018-11-27T13:05:15.851Z,13.30
2018-11-27T13:07:44.459Z,13.53
2018-11-27T13:10:15.512Z,11.40
2018-11-27T13:12:44.802Z,13.00
2018-11-27T13:15:18.374Z,11.90
2018-11-27T13:17:47.768Z,13.23
2018-11-27T13:20:18.063Z,13.17
2018-11-27T13:22:47.581Z,11.17
2018-11-27T13:25:17.912Z,13.70
2018-11-27T13:27:46.548Z,12.70
2018-11-27T13:30:23.851Z,13.40
2018-11-27T13:32:55.078Z,12.27
2018-11-27T13:35:23.566Z,14.00
2018-11-27T13:37:52.091Z,13.03
2018-11-27T13:40:20.784Z,13.00
2018-11-27T13:42:49.412Z,13.50
2018-11-27T13:45:17.903Z,13.60
2018-11-27T13:47:47.194Z,13.33
2018-11-27T13:50:17.571Z,14.00
2018-11-27T13:52:47.491Z,12.70
2018-11-27T13:55:21.767Z,11.50
2018-11-27T13:57:51.279Z,13.17
2018-11-27T14:00:20.782Z,14.00
2018-11-27T14:02:52.093Z,13.50
2018-11-27T14:05:23.150Z,14.40
2018-11-27T14:07:52.102Z,12.17
2018-11-27T14:10:21.054Z,13.03
2018-11-27T14:12:49.787Z,12.73
2018-11-27T14:15:22.491Z,13.17
2018-11-27T14:17:55.765Z,12.83
2018-11-27T14:20:24.260Z,12.80
2018-11-27T14:22:53.983Z,13.10
2018-11-27T14:25:24.483Z,12.50
2018-11-27T14:27:57.782Z,12.73
2018-11-27T14:30:31.687Z,11.60
2018-11-27T14:33:01.564Z,12.73
2018-11-27T14:35:34.976Z,14.40
2018-11-27T14:38:04.382Z,12.63
2018-11-27T14:40:33.608Z,12.73
2018-11-27T14:43:04.219Z,14.07
2018-11-27T14:45:32.666Z,13.17
2018-11-27T14:48:01.234Z,13.10
2018-11-27T14:50:30.325Z,17.27
2018-11-27T14:53:00.710Z,14.87
2018-11-27T14:55:35.400Z,13.57
2018-11-27T14:58:04.233Z,13.07
2018-11-27T15:00:33.101Z,12.47
2018-11-27T15:03:01.935Z,13.53
2018-11-27T15:05:37.217Z,13.17
2018-11-27T15:08:09.080Z,12.47
2018-11-27T15:10:38.536Z,13.50
2018-11-27T15:13:08.915Z,12.90
2018-11-27T15:15:37.390Z,12.90
2018-11-27T15:18:08.257Z,13.50
2018-11-27T15:20:37.842Z,12.93
2018-11-27T15:23:07.328Z,14.73
2018-11-27T15:25:40.880Z,13.80
2018-11-27T15:28:09.761Z,13.20
2018-11-27T15:30:46.164Z,13.10
2018-11-27T15:33:18.824Z,15.20
2018-11-27T15:35:48.008Z,14.17
2018-11-27T15:38:22.477Z,13.50
2018-11-27T15:40:52.913Z,15.17
2018-11-27T15:43:22.765Z,11.80
2018-11-27T15:45:53.619Z,12.57
2018-11-27T15:48:29.530Z,14.93
2018-11-27T15:51:01.333Z,13.60
2018-11-27T15:53:35.472Z,13.53
2018-11-27T15:56:10.048Z,11.60
2018-11-27T15:58:39.946Z,12.60
2018-11-27T16:01:09.437Z,12.70
2018-11-27T16:03:38.529Z,12.40
2018-11-27T16:06:10.684Z,13.37
2018-11-27T16:08:39.821Z,13.23
2018-11-27T16:11:09.405Z,11.40
2018-11-27T16:13:38.822Z,13.20
2018-11-27T16:16:09.159Z,13.97
2018-11-27T16:18:45.165Z,13.07
2018-11-27T16:21:33.348Z,13.53
2018-11-27T16:24:10.817Z,14.53
2018-11-27T16:26:52.085Z,13.23
2018-11-27T16:29:23.126Z,13.63
2018-11-27T16:31:59.822Z,11.37
2018-11-27T16:37:16.929Z,13.37
2018-11-27T16:40:04.087Z,12.70
2018-11-27T16:42:35.460Z,13.00
2018-11-27T16:45:18.052Z,14.53
2018-11-27T16:47:54.827Z,13.40
2018-11-27T16:53:08.763Z,12.23
2018-11-27T16:55:39.944Z,12.27
2018-11-27T16:58:09.378Z,12.27
2018-11-27T17:00:38.042Z,12.17
2018-11-27T17:03:08.012Z,14.00
2018-11-27T17:05:44.375Z,14.20
2018-11-27T17:08:13.018Z,14.10
2018-11-27T17:10:45.262Z,15.10
2018-11-27T17:13:15.458Z,15.93
2018-11-27T17:15:44.152Z,16.33
2018-11-27T17:18:13.805Z,12.93
2018-11-27T17:20:44.952Z,12.47
2018-11-27T17:23:23.002Z,12.60
2018-11-27T17:25:51.641Z,11.67
2018-11-27T17:28:24.104Z,14.50
2018-11-27T17:31:01.125Z,15.13
2018-11-27T17:33:34.284Z,13.57
2018-11-27T17:36:06.433Z,14.67
2018-11-27T17:38:35.199Z,11.80
2018-11-27T17:41:04.020Z,13.50
2018-11-27T17:43:34.079Z,13.10
2018-11-27T17:46:02.920Z,13.80
2018-11-27T17:48:32.943Z,12.50
2018-11-27T17:51:08.011Z,11.30
2018-11-27T17:53:39.822Z,11.73
2018-11-27T17:58:42.675Z,13.57
2018-11-27T18:01:13.876Z,16.47
2018-11-27T18:03:42.736Z,13.30
2018-11-27T18:06:14.517Z,16.33
2018-11-27T18:08:44.722Z,14.03
2018-11-27T18:11:17.017Z,17.27
2018-11-27T18:13:48.924Z,13.60
2018-11-27T18:18:58.992Z,13.77
2018-11-27T18:21:32.997Z,15.10
2018-11-27T18:26:44.949Z,23.07
2018-11-27T18:29:13.515Z,15.03
2018-11-27T18:31:45.808Z,15.00
2018-11-27T18:34:15.515Z,15.00
2018-11-27T18:36:46.577Z,15.50
2018-11-27T18:39:15.082Z,15.33
2018-11-27T18:44:34.023Z,13.10
2018-11-27T18:47:03.028Z,16.93
2018-11-27T18:49:31.590Z,21.87
2018-11-27T18:52:00.063Z,15.47
2018-11-27T18:54:36.724Z,16.80
2018-11-27T18:57:06.117Z,15.70
2018-11-27T18:59:34.651Z,16.97
2018-11-27T19:02:04.204Z,15.37
2018-11-27T19:04:36.561Z,18.20
2018-11-27T19:07:06.815Z,15.90
2018-11-27T19:09:35.538Z,16.13
2018-11-27T19:12:04.634Z,15.40
2018-11-27T19:14:35.544Z,19.30
2018-11-27T19:17:05.447Z,17.00
2018-11-27T19:19:34.188Z,16.27
2018-11-27T19:22:03.098Z,17.30
2018-11-27T19:24:32.068Z,18.73
2018-11-27T19:27:01.523Z,17.00
2018-11-27T19:29:34.651Z,16.53
2018-11-27T19:32:10.687Z,14.63
2018-11-27T19:34:39.811Z,16.13
2018-11-27T19:37:12.647Z,17.93
2018-11-27T19:39:42.223Z,16.00
2018-11-27T19:42:10.942Z,15.60
2018-11-27T19:44:47.365Z,16.23
2018-11-27T19:47:16.032Z,16.87
2018-11-27T19:49:45.709Z,17.03
2018-11-27T19:52:16.710Z,17.50
2018-11-27T19:54:47.736Z,16.70
2018-11-27T19:57:17.092Z,16.33
2018-11-27T19:59:46.488Z,16.90
2018-11-27T20:02:16.464Z,17.27
2018-11-27T20:04:45.487Z,15.67
2018-11-27T20:07:15.943Z,15.20
2018-11-27T20:09:45.111Z,15.60
2018-11-27T20:12:22.432Z,16.00
2018-11-27T20:15:04.544Z,13.23
2018-11-27T20:17:39.984Z,14.03
2018-11-27T20:20:12.389Z,13.33
2018-11-27T20:22:41.308Z,14.50
2018-11-27T20:25:11.761Z,14.33
2018-11-27T20:27:40.872Z,13.10
2018-11-27T20:30:16.715Z,11.47
2018-11-27T20:33:04.929Z,12.83
2018-11-27T20:35:39.743Z,13.67
2018-11-27T20:38:11.278Z,13.07
2018-11-27T20:40:42.209Z,13.23
2018-11-27T20:43:10.818Z,14.03
2018-11-27T20:45:41.876Z,11.30
2018-11-27T20:48:15.607Z,12.67
2018-11-27T20:50:45.069Z,12.00
2018-11-27T20:53:14.249Z,11.63
2018-11-27T20:55:43.264Z,11.50
2018-11-27T20:58:12.006Z,11.77
2018-11-27T21:00:44.563Z,12.60
2018-11-27T21:03:13.558Z,11.90
2018-11-27T21:05:44.995Z,13.50
2018-11-27T21:08:13.912Z,12.17
2018-11-27T21:10:44.136Z,12.73
2018-11-27T21:13:13.151Z,12.47
2018-11-27T21:15:43.402Z,12.63
2018-11-27T21:18:13.338Z,13.50
2018-11-27T21:20:43.283Z,14.23
2018-11-27T21:23:11.982Z,13.27
2018-11-27T21:25:41.279Z,14.80
2018-11-27T21:28:13.809Z,12.70
2018-11-27T21:30:44.047Z,13.93
2018-11-27T21:33:13.994Z,15.73
2018-11-27T21:35:42.677Z,18.13
2018-11-27T21:38:11.450Z,16.13
2018-11-27T21:40:40.394Z,15.77
2018-11-27T21:43:09.102Z,14.50
2018-11-27T21:45:38.036Z,16.20
2018-11-27T21:48:07.644Z,16.87
2018-11-27T21:50:40.550Z,15.73
2018-11-27T21:53:10.693Z,14.83
2018-11-27T21:55:40.389Z,17.17
2018-11-27T21:58:09.650Z,13.73
2018-11-27T22:00:40.817Z,14.90
2018-11-27T22:03:11.438Z,15.77
2018-11-27T22:05:40.184Z,17.13
2018-11-27T22:08:09.624Z,15.70
2018-11-27T22:10:38.989Z,17.70
2018-11-27T22:13:09.662Z,16.10
2018-11-27T22:15:40.201Z,14.30
2018-11-27T22:18:12.250Z,15.53
2018-11-27T22:20:41.002Z,15.73
2018-11-27T22:23:10.072Z,14.93
2018-11-27T22:25:39.553Z,15.90
2018-11-27T22:28:10.167Z,17.70
2018-11-27T22:30:39.735Z,12.70
2018-11-27T22:33:18.935Z,17.50
2018-11-27T22:35:53.399Z,14.87
2018-11-27T22:38:22.414Z,17.20
2018-11-27T22:40:54.421Z,16.10
2018-11-27T22:43:26.724Z,16.83
2018-11-27T22:45:55.752Z,17.27
2018-11-27T22:48:25.887Z,16.13
2018-11-27T22:50:57.359Z,15.77
2018-11-27T22:53:26.924Z,15.60
2018-11-27T22:55:58.050Z,16.07
2018-11-27T22:58:28.002Z,16.10
2018-11-27T23:00:57.210Z,15.67
2018-11-27T23:03:26.268Z,18.47
2018-11-27T23:05:58.019Z,15.70
2018-11-27T23:08:27.226Z,15.33
2018-11-27T23:10:56.375Z,16.23
2018-11-27T23:13:25.900Z,17.20
2018-11-27T23:15:55.793Z,18.37
2018-11-27T23:18:25.888Z,17.37
2018-11-27T23:20:55.006Z,17.67
2018-11-27T23:23:24.613Z,17.70
2018-11-27T23:25:55.537Z,19.37
2018-11-27T23:28:24.225Z,17.70
2018-11-27T23:30:55.054Z,17.03
2018-11-27T23:33:24.056Z,15.53
2018-11-27T23:35:54.264Z,17.10
2018-11-27T23:38:22.972Z,16.30
2018-11-27T23:40:52.819Z,15.90
2018-11-27T23:43:21.421Z,16.43
2018-11-27T23:45:50.147Z,16.63
2018-11-27T23:48:19.345Z,18.10
2018-11-27T23:50:48.225Z,18.33
2018-11-27T23:53:18.052Z,19.07
2018-11-27T23:55:46.512Z,17.60
2018-11-27T23:58:15.517Z,15.47
